Time;durP1;ratioP1;P1;durP2;ratioP2;P2;SDS_P1;SDS_P2;PMS_P1;PMS_P2;Temp;Humidity;BMP_temperature;BMP_pressure;BME280_temperature;BME280_humidity;BME280_pressure;Samples;Min_cycle;Max_cycle;Signal;HPM_P1;HPM_P2
2022/12/06 00:00:29;;;;;;;11.13;4.93;;;5.10;99.90;;;;;;5026299;28;20492;-56
2022/12/06 00:02:55;;;;;;;9.68;3.78;;;5.00;99.90;;;;;;5022785;28;20534;-56
2022/12/06 00:05:20;;;;;;;12.57;4.93;;;5.00;99.90;;;;;;5024031;28;20053;-55
2022/12/06 00:07:48;;;;;;;15.25;4.60;;;5.00;99.90;;;;;;5025078;28;20062;-57
2022/12/06 00:10:15;;;;;;;12.60;4.30;;;5.00;99.90;;;;;;5024199;28;20207;-56
2022/12/06 00:12:41;;;;;;;10.95;4.45;;;5.00;99.90;;;;;;5022375;28;20059;-57
2022/12/06 00:15:07;;;;;;;12.43;4.90;;;5.00;99.90;;;;;;5022218;28;20041;-57
2022/12/06 00:17:33;;;;;;;11.77;4.20;;;5.00;99.90;;;;;;5026042;28;20048;-57
2022/12/06 00:19:59;;;;;;;10.75;4.65;;;5.00;99.90;;;;;;5022010;28;20042;-57
2022/12/06 00:22:24;;;;;;;10.32;4.40;;;5.00;99.90;;;;;;5020821;28;20041;-55
2022/12/06 00:24:50;;;;;;;14.38;4.00;;;5.00;99.90;;;;;;5021220;28;20106;-56
2022/12/06 00:27:16;;;;;;;12.55;3.90;;;5.00;99.90;;;;;;5024727;28;20059;-57
2022/12/06 00:29:42;;;;;;;8.82;3.53;;;5.00;99.90;;;;;;5020795;28;20076;-57
2022/12/06 00:32:08;;;;;;;8.95;3.42;;;5.00;99.90;;;;;;5022337;28;20056;-56
2022/12/06 00:34:34;;;;;;;13.13;3.45;;;5.00;99.90;;;;;;5021385;28;20043;-56
2022/12/06 00:36:59;;;;;;;12.30;3.40;;;5.00;99.90;;;;;;5021592;28;20034;-56
2022/12/06 00:39:25;;;;;;;10.48;3.42;;;5.00;99.90;;;;;;5015027;28;20194;-56
2022/12/06 00:41:54;;;;;;;6.45;3.20;;;5.00;99.90;;;;;;5024051;28;20045;-57
2022/12/06 00:44:20;;;;;;;12.25;3.20;;;5.00;99.90;;;;;;5021036;28;20534;-56
2022/12/06 00:46:46;;;;;;;8.88;3.03;;;5.00;99.90;;;;;;5039091;28;20049;-55
2022/12/06 00:49:12;;;;;;;4.57;2.78;;;5.00;99.90;;;;;;5023035;28;20053;-56
2022/12/06 00:51:39;;;;;;;8.48;3.15;;;5.00;99.90;;;;;;5024852;28;20103;-56
2022/12/06 00:54:06;;;;;;;9.27;2.83;;;5.00;99.90;;;;;;5019640;28;20053;-55
2022/12/06 00:56:34;;;;;;;5.30;2.60;;;5.00;99.90;;;;;;5022834;28;20552;-56
2022/12/06 00:59:01;;;;;;;6.65;2.20;;;5.10;99.90;;;;;;5017177;28;20043;-55
2022/12/06 01:01:29;;;;;;;3.50;1.88;;;5.00;99.90;;;;;;5025300;28;20118;-57
2022/12/06 01:04:00;;;;;;;8.27;1.77;;;5.00;99.90;;;;;;5023308;28;20054;-55
2022/12/06 01:06:31;;;;;;;6.35;1.80;;;5.00;99.90;;;;;;5022632;28;20056;-56
2022/12/06 01:09:00;;;;;;;5.82;1.92;;;5.00;99.90;;;;;;5021052;28;20052;-56
2022/12/06 01:11:27;;;;;;;6.65;1.75;;;5.00;99.90;;;;;;5023188;28;20045;-56
2022/12/06 01:13:53;;;;;;;3.17;1.30;;;5.00;99.90;;;;;;5017619;28;20053;-57
2022/12/06 01:16:23;;;;;;;3.92;1.27;;;5.00;99.90;;;;;;5019718;28;20053;-57
2022/12/06 01:18:55;;;;;;;5.88;1.17;;;5.00;99.90;;;;;;5021267;28;20060;-58
2022/12/06 01:21:22;;;;;;;3.28;1.20;;;4.90;99.90;;;;;;5021506;28;20033;-56
2022/12/06 01:23:48;;;;;;;3.25;1.10;;;4.90;99.90;;;;;;5022237;28;20499;-54
2022/12/06 01:26:21;;;;;;;3.78;1.40;;;4.90;99.90;;;;;;5020887;28;20424;-55
2022/12/06 01:28:47;;;;;;;4.97;1.48;;;4.90;99.90;;;;;;5021520;28;20110;-55
2022/12/06 01:31:14;;;;;;;3.15;1.30;;;4.90;99.90;;;;;;5013461;28;22473;-56
2022/12/06 01:33:40;;;;;;;2.30;1.15;;;4.90;99.90;;;;;;5019574;28;20476;-56
2022/12/06 01:36:06;;;;;;;1.67;1.10;;;4.90;99.90;;;;;;5014965;28;20041;-56
2022/12/06 01:38:32;;;;;;;1.65;1.30;;;4.80;99.90;;;;;;5020143;28;20099;-55
2022/12/06 01:40:59;;;;;;;5.05;1.60;;;4.80;99.90;;;;;;5018207;28;20045;-55
2022/12/06 01:43:30;;;;;;;4.95;1.58;;;4.80;99.90;;;;;;5021338;28;20103;-56
2022/12/06 01:46:02;;;;;;;1.95;1.23;;;4.80;99.90;;;;;;5021512;28;20055;-56
2022/12/06 01:48:28;;;;;;;2.67;1.52;;;4.80;99.90;;;;;;5019238;28;20137;-56
2022/12/06 01:50:55;;;;;;;1.90;1.40;;;4.80;99.90;;;;;;5019466;28;20053;-57
2022/12/06 01:53:22;;;;;;;5.50;1.50;;;4.70;99.90;;;;;;5020050;28;20133;-56
2022/12/06 01:55:48;;;;;;;3.38;1.88;;;4.70;99.90;;;;;;5020723;28;20079;-57
2022/12/06 01:58:23;;;;;;;4.68;1.58;;;4.70;99.90;;;;;;5022348;28;20053;-56
2022/12/06 02:00:49;;;;;;;3.78;1.50;;;4.70;99.90;;;;;;5020190;28;20037;-55
2022/12/06 02:03:20;;;;;;;3.03;1.60;;;4.70;99.90;;;;;;5018506;28;22005;-56
2022/12/06 02:05:48;;;;;;;5.82;1.77;;;4.70;99.90;;;;;;5019483;28;20431;-56
2022/12/06 02:08:15;;;;;;;4.25;2.00;;;4.70;99.90;;;;;;5018788;28;20045;-55
2022/12/06 02:10:41;;;;;;;5.32;1.80;;;4.70;99.90;;;;;;5020744;28;20415;-56
2022/12/06 02:13:07;;;;;;;8.95;2.40;;;4.70;99.90;;;;;;5018281;28;20091;-55
2022/12/06 02:15:57;;;;;;;6.70;1.80;;;4.70;99.90;;;;;;5023069;28;20048;-55
2022/12/06 02:18:59;;;;;;;4.25;1.88;;;4.60;99.90;;;;;;5019607;28;20500;-55
2022/12/06 02:21:44;;;;;;;4.63;1.60;;;4.70;99.90;;;;;;5018759;28;20553;-56
2022/12/06 02:24:52;;;;;;;3.45;1.55;;;4.70;99.90;;;;;;5019407;28;20049;-57
2022/12/06 02:27:28;;;;;;;7.32;1.80;;;4.60;99.90;;;;;;5019148;28;20061;-54
2022/12/06 02:30:07;;;;;;;4.20;1.80;;;4.60;99.90;;;;;;5021816;28;20056;-56
2022/12/06 02:32:42;;;;;;;2.75;1.70;;;4.60;99.90;;;;;;5023703;28;20055;-56
2022/12/06 02:35:17;;;;;;;4.70;2.00;;;4.60;99.90;;;;;;5022335;28;20103;-57
2022/12/06 02:37:53;;;;;;;5.90;2.17;;;4.70;99.90;;;;;;5019093;28;20053;-58
2022/12/06 02:40:24;;;;;;;3.67;1.90;;;4.60;99.90;;;;;;5018959;28;20044;-55
2022/12/06 02:43:12;;;;;;;6.40;2.30;;;4.60;99.90;;;;;;5022386;28;20053;-55
2022/12/06 02:45:43;;;;;;;4.18;2.25;;;4.60;99.90;;;;;;5021611;28;20162;-54
2022/12/06 02:48:11;;;;;;;6.40;2.20;;;4.50;99.90;;;;;;5021896;28;20084;-56
2022/12/06 02:50:44;;;;;;;7.95;2.45;;;4.60;99.90;;;;;;5021203;28;20044;-55
2022/12/06 02:53:15;;;;;;;4.90;2.30;;;4.60;99.90;;;;;;5018341;28;20080;-54
2022/12/06 02:55:42;;;;;;;10.35;2.40;;;4.50;99.90;;;;;;5018918;28;20069;-55
2022/12/06 02:58:09;;;;;;;7.53;2.67;;;4.50;99.90;;;;;;5020354;28;20064;-56
2022/12/06 03:00:43;;;;;;;4.53;2.00;;;4.60;99.90;;;;;;5020983;28;20099;-55
2022/12/06 03:03:27;;;;;;;7.72;2.30;;;4.60;99.90;;;;;;5018136;28;20045;-56
2022/12/06 03:06:01;;;;;;;5.28;1.90;;;4.60;99.90;;;;;;5023862;28;20184;-57
2022/12/06 03:08:41;;;;;;;4.68;1.85;;;4.60;99.90;;;;;;5025678;28;20397;-54
2022/12/06 03:11:07;;;;;;;5.43;1.95;;;4.60;99.90;;;;;;5022444;28;20052;-56
2022/12/06 03:13:52;;;;;;;4.75;1.75;;;4.60;99.90;;;;;;5025356;28;26225;-56
2022/12/06 03:16:20;;;;;;;3.53;1.80;;;4.60;99.90;;;;;;5027273;28;20063;-56
2022/12/06 03:19:03;;;;;;;5.63;1.65;;;4.60;99.90;;;;;;5026144;28;20056;-56
2022/12/06 03:21:47;;;;;;;3.22;1.88;;;4.60;99.90;;;;;;5031401;28;20041;-56
2022/12/06 03:24:15;;;;;;;2.75;1.20;;;4.60;99.90;;;;;;5031562;28;20115;-56
2022/12/06 03:26:44;;;;;;;2.67;1.45;;;4.50;99.90;;;;;;5030403;28;20804;-55
2022/12/06 03:29:14;;;;;;;3.30;1.52;;;4.50;99.90;;;;;;5032771;28;20053;-55
2022/12/06 03:31:41;;;;;;;2.22;1.30;;;4.50;99.90;;;;;;5031396;28;20044;-56
2022/12/06 03:34:22;;;;;;;5.47;1.52;;;4.50;99.90;;;;;;5027822;28;20061;-56
2022/12/06 03:36:50;;;;;;;2.40;1.20;;;4.50;99.90;;;;;;5022109;28;20137;-56
2022/12/06 03:39:43;;;;;;;3.53;1.40;;;4.50;99.90;;;;;;5021578;28;20570;-54
2022/12/06 03:42:10;;;;;;;2.50;1.27;;;4.40;99.90;;;;;;5021316;28;20193;-56
2022/12/06 03:44:36;;;;;;;2.78;1.40;;;4.40;99.90;;;;;;5023482;28;20040;-56
2022/12/06 03:47:14;;;;;;;7.65;1.35;;;4.40;99.90;;;;;;5022620;28;20110;-55
2022/12/06 03:49:46;;;;;;;1.50;1.17;;;4.40;99.90;;;;;;5018920;28;20049;-55
2022/12/06 03:52:12;;;;;;;3.10;1.20;;;4.40;99.90;;;;;;5017641;28;20045;-56
2022/12/06 03:54:39;;;;;;;2.03;1.30;;;4.30;99.90;;;;;;5017782;28;20084;-56
2022/12/06 03:57:05;;;;;;;2.55;0.90;;;4.30;99.90;;;;;;5022242;28;20057;-56
2022/12/06 03:59:31;;;;;;;2.25;1.02;;;4.30;99.90;;;;;;5015388;28;20055;-56
2022/12/06 04:01:57;;;;;;;1.98;1.08;;;4.30;99.90;;;;;;5021407;28;20048;-53
2022/12/06 04:04:23;;;;;;;3.55;1.30;;;4.30;99.90;;;;;;5019598;28;20053;-55
2022/12/06 04:06:50;;;;;;;1.52;0.93;;;4.30;99.90;;;;;;5018495;28;20063;-56
2022/12/06 04:12:00;;;;;;;1.13;0.95;;;4.30;99.90;;;;;;5021131;28;20103;-55
2022/12/06 04:14:31;;;;;;;2.67;1.30;;;4.20;99.90;;;;;;5026142;28;20045;-56
2022/12/06 04:19:42;;;;;;;3.88;1.13;;;4.10;99.90;;;;;;5020609;28;20052;-57
2022/12/06 04:24:53;;;;;;;2.05;1.20;;;4.00;99.90;;;;;;5019998;28;20053;-55
2022/12/06 04:41:00;;;;;;;2.42;1.20;;;3.70;99.90;;;;;;5022190;28;20041;-55
2022/12/06 04:43:41;;;;;;;2.03;1.10;;;3.70;99.90;;;;;;5019077;28;20102;-56
2022/12/06 04:46:11;;;;;;;2.38;1.20;;;3.60;99.90;;;;;;5023829;28;20057;-55
2022/12/06 04:48:38;;;;;;;1.40;1.20;;;3.60;99.90;;;;;;5024526;28;20384;-56
2022/12/06 04:51:04;;;;;;;3.13;1.30;;;3.50;99.90;;;;;;5023899;28;20053;-53
2022/12/06 04:53:30;;;;;;;3.63;1.50;;;3.50;99.90;;;;;;5028570;28;20471;-56
2022/12/06 04:55:56;;;;;;;2.20;1.30;;;3.50;99.90;;;;;;5021236;28;20049;-56
2022/12/06 04:58:22;;;;;;;2.53;1.38;;;3.40;99.90;;;;;;5021854;28;20073;-56
2022/12/06 05:00:54;;;;;;;4.22;1.30;;;3.40;99.90;;;;;;5024080;28;20079;-56
2022/12/06 05:03:20;;;;;;;3.05;1.52;;;3.40;99.90;;;;;;5023232;28;20171;-56
2022/12/06 05:05:46;;;;;;;7.00;1.60;;;3.30;99.90;;;;;;5024721;28;20063;-56
2022/12/06 05:08:12;;;;;;;3.92;1.30;;;3.30;99.90;;;;;;5022779;28;20993;-55
2022/12/06 05:10:38;;;;;;;3.38;1.20;;;3.30;99.90;;;;;;5023566;28;20050;-56
2022/12/06 05:13:04;;;;;;;2.92;1.63;;;3.20;99.90;;;;;;5025277;28;20056;-55
2022/12/06 05:15:31;;;;;;;3.38;1.48;;;3.20;99.90;;;;;;5024456;28;20045;-56
2022/12/06 05:17:57;;;;;;;2.15;1.48;;;3.20;99.90;;;;;;5017865;28;20135;-55
2022/12/06 05:20:23;;;;;;;2.55;1.40;;;3.10;99.90;;;;;;5021305;28;20076;-56
2022/12/06 05:22:49;;;;;;;2.40;1.70;;;3.10;99.90;;;;;;5020549;28;20052;-56
2022/12/06 05:25:15;;;;;;;2.92;1.90;;;3.10;99.90;;;;;;5021672;28;20057;-57
2022/12/06 05:27:42;;;;;;;3.92;1.63;;;3.10;99.90;;;;;;5020979;28;20049;-54
2022/12/06 05:30:08;;;;;;;4.60;2.00;;;3.10;99.90;;;;;;5016883;28;20057;-55
2022/12/06 05:32:34;;;;;;;4.45;2.20;;;3.10;99.90;;;;;;5024795;28;20051;-56
2022/12/06 05:35:00;;;;;;;6.03;2.30;;;3.10;99.90;;;;;;5024800;28;20033;-56
2022/12/06 05:37:25;;;;;;;4.47;2.30;;;3.10;99.90;;;;;;5022298;28;20037;-54
2022/12/06 05:39:51;;;;;;;6.72;2.38;;;3.10;99.90;;;;;;5023165;28;20053;-56
2022/12/06 05:42:17;;;;;;;4.50;2.30;;;3.10;99.90;;;;;;5023508;28;21293;-56
2022/12/06 05:44:43;;;;;;;3.70;2.17;;;3.20;99.90;;;;;;5021692;28;20046;-57
2022/12/06 05:47:08;;;;;;;4.32;2.38;;;3.10;99.90;;;;;;5020520;28;20052;-56
2022/12/06 05:49:34;;;;;;;3.70;2.70;;;3.10;99.90;;;;;;5021676;28;20171;-55
2022/12/06 05:52:00;;;;;;;5.10;2.55;;;3.10;99.90;;;;;;5019160;28;20384;-55
2022/12/06 05:54:26;;;;;;;9.52;3.05;;;3.10;99.90;;;;;;5022560;28;20407;-56
2022/12/06 05:56:51;;;;;;;8.07;2.55;;;3.10;99.90;;;;;;5020939;28;20060;-56
2022/12/06 05:59:17;;;;;;;7.20;2.35;;;3.00;99.90;;;;;;5020568;28;20068;-56
2022/12/06 06:01:43;;;;;;;6.38;2.70;;;3.00;99.90;;;;;;5017538;28;20138;-56
2022/12/06 06:04:09;;;;;;;10.57;2.42;;;3.00;99.90;;;;;;5019516;28;20051;-56
2022/12/06 06:06:35;;;;;;;5.15;2.38;;;3.00;99.90;;;;;;5019417;28;20052;-55
2022/12/06 06:09:00;;;;;;;9.75;2.60;;;3.00;99.90;;;;;;5020318;28;20052;-56
2022/12/06 06:11:26;;;;;;;9.43;3.05;;;3.00;99.90;;;;;;5024730;28;20052;-56
2022/12/06 06:13:53;;;;;;;4.78;2.92;;;3.00;99.90;;;;;;5018033;28;20555;-55
2022/12/06 06:16:20;;;;;;;6.43;2.88;;;3.00;99.90;;;;;;5031410;28;20114;-55
2022/12/06 06:18:46;;;;;;;6.10;2.67;;;3.00;99.90;;;;;;5028534;28;20048;-56
2022/12/06 06:21:12;;;;;;;6.47;2.35;;;3.00;99.90;;;;;;5021821;28;20149;-56
2022/12/06 06:23:38;;;;;;;4.72;2.30;;;3.00;99.90;;;;;;5025917;28;20041;-55
2022/12/06 06:26:09;;;;;;;4.88;2.58;;;3.00;99.90;;;;;;5028463;28;20076;-57
2022/12/06 06:28:35;;;;;;;5.68;2.70;;;2.90;99.90;;;;;;5020849;28;20167;-54
2022/12/06 06:31:05;;;;;;;4.72;2.80;;;2.90;99.90;;;;;;5020618;28;21110;-53
2022/12/06 06:33:31;;;;;;;6.93;2.60;;;2.90;99.90;;;;;;5022238;28;20056;-55
2022/12/06 06:35:57;;;;;;;8.38;2.40;;;2.90;99.90;;;;;;5024187;28;20052;-57
2022/12/06 06:38:23;;;;;;;5.25;2.75;;;2.80;99.90;;;;;;5016879;28;20040;-54
2022/12/06 06:40:49;;;;;;;4.40;2.60;;;2.80;99.90;;;;;;5012861;28;20656;-53
2022/12/06 06:43:19;;;;;;;4.47;2.38;;;2.70;99.90;;;;;;5016837;28;20128;-56
2022/12/06 06:45:52;;;;;;;3.53;2.10;;;2.70;99.90;;;;;;5016628;28;20045;-56
2022/12/06 06:48:18;;;;;;;3.75;2.47;;;2.70;99.90;;;;;;5019463;28;20111;-55
2022/12/06 06:50:44;;;;;;;6.45;2.30;;;2.70;99.90;;;;;;5014451;28;20060;-55
2022/12/06 06:53:10;;;;;;;5.35;2.40;;;2.60;99.90;;;;;;5023067;28;20183;-55
2022/12/06 06:55:36;;;;;;;4.63;2.30;;;2.60;99.90;;;;;;5019057;28;20056;-55
2022/12/06 06:58:03;;;;;;;3.33;1.90;;;2.50;99.90;;;;;;5018716;28;20080;-55
2022/12/06 07:00:28;;;;;;;5.00;3.00;;;2.50;99.90;;;;;;5018649;28;20093;-55
2022/12/06 07:02:54;;;;;;;5.07;2.70;;;2.50;99.90;;;;;;5026874;28;20127;-56
2022/12/06 07:05:20;;;;;;;6.38;3.00;;;2.50;99.90;;;;;;5024213;28;20049;-56
2022/12/06 07:07:46;;;;;;;6.35;2.67;;;2.40;99.90;;;;;;5020803;28;20044;-55
2022/12/06 07:10:12;;;;;;;3.95;2.45;;;2.40;99.90;;;;;;5020918;28;20053;-55
2022/12/06 07:12:38;;;;;;;3.63;2.40;;;2.40;99.90;;;;;;5027562;28;20118;-55
2022/12/06 07:15:05;;;;;;;4.88;2.80;;;2.30;99.90;;;;;;5025820;28;20049;-49
2022/12/06 07:17:31;;;;;;;3.95;2.53;;;2.30;99.90;;;;;;5029659;28;20055;-51
2022/12/06 07:19:57;;;;;;;5.40;2.95;;;2.30;99.90;;;;;;5030693;28;20499;-49
2022/12/06 07:22:22;;;;;;;7.00;3.30;;;2.20;99.90;;;;;;5031406;28;20761;-51
2022/12/06 07:24:48;;;;;;;8.98;3.15;;;2.20;99.90;;;;;;5029627;28;20048;-49
2022/12/06 07:27:14;;;;;;;6.50;3.50;;;2.20;99.90;;;;;;5029445;28;20049;-50
2022/12/06 07:29:40;;;;;;;6.00;3.22;;;2.10;99.90;;;;;;5028244;28;20047;-53
2022/12/06 07:32:06;;;;;;;4.80;3.03;;;2.10;99.90;;;;;;5024821;28;20084;-52
2022/12/06 07:34:32;;;;;;;4.15;2.85;;;2.00;99.90;;;;;;5023347;28;20060;-53
2022/12/06 07:36:58;;;;;;;7.47;3.42;;;2.10;99.90;;;;;;5031291;28;20472;-51
2022/12/06 07:39:25;;;;;;;5.15;3.55;;;2.10;99.90;;;;;;5031252;28;20079;-52
2022/12/06 07:47:20;;;;;;;8.15;4.07;;;2.00;99.90;;;;;;5036539;28;20041;-50
2022/12/06 07:49:45;;;;;;;6.25;3.90;;;2.00;99.90;;;;;;5028623;28;20134;-49
2022/12/06 07:52:11;;;;;;;9.02;4.15;;;2.00;99.90;;;;;;5037744;28;20053;-50
2022/12/06 07:54:37;;;;;;;6.90;4.03;;;2.00;99.90;;;;;;5034203;28;20037;-52
2022/12/06 07:57:03;;;;;;;8.40;3.63;;;2.00;99.90;;;;;;5038564;28;20060;-52
2022/12/06 07:59:28;;;;;;;12.68;4.70;;;2.00;99.90;;;;;;5014395;28;20045;-51
2022/12/06 08:01:54;;;;;;;6.80;4.32;;;2.00;99.90;;;;;;5031705;28;20045;-49
2022/12/06 08:04:20;;;;;;;6.38;4.22;;;2.00;99.90;;;;;;5029788;28;20045;-51
2022/12/06 08:06:46;;;;;;;7.75;4.45;;;2.00;99.90;;;;;;5031927;28;20059;-50
2022/12/06 08:09:12;;;;;;;8.45;4.35;;;2.10;99.90;;;;;;5032555;28;20048;-51
2022/12/06 08:11:38;;;;;;;5.80;4.18;;;2.00;99.90;;;;;;5029773;28;20038;-51
2022/12/06 08:14:04;;;;;;;6.55;4.22;;;2.10;99.90;;;;;;5032609;28;20091;-50
2022/12/06 08:16:30;;;;;;;8.20;3.90;;;2.10;99.90;;;;;;5032852;28;20119;-50
2022/12/06 08:18:56;;;;;;;7.47;4.40;;;2.10;99.90;;;;;;5030263;28;20439;-53
2022/12/06 08:21:24;;;;;;;6.93;3.90;;;2.10;99.90;;;;;;5031776;28;20491;-52
2022/12/06 08:23:52;;;;;;;6.30;4.22;;;2.10;99.90;;;;;;5027417;28;20057;-49
2022/12/06 08:26:18;;;;;;;7.38;4.00;;;2.10;99.90;;;;;;5033495;28;20353;-50
2022/12/06 08:28:44;;;;;;;6.80;3.38;;;2.20;99.90;;;;;;5032446;28;20049;-52
2022/12/06 08:31:13;;;;;;;11.27;3.95;;;2.20;99.90;;;;;;5030349;28;20335;-50
2022/12/06 08:33:38;;;;;;;7.40;4.07;;;2.20;99.90;;;;;;5029640;28;20635;-50
2022/12/06 08:36:09;;;;;;;6.00;4.07;;;2.20;99.90;;;;;;5031618;28;20042;-52
2022/12/06 08:38:36;;;;;;;5.97;3.80;;;2.20;99.90;;;;;;5028929;28;20123;-50
2022/12/06 08:41:03;;;;;;;6.50;4.00;;;2.20;99.90;;;;;;5032761;28;20475;-50
2022/12/06 08:43:30;;;;;;;7.00;3.97;;;2.20;99.90;;;;;;5030905;28;20068;-49
2022/12/06 08:45:56;;;;;;;6.63;3.85;;;2.30;99.90;;;;;;5032130;28;20053;-49
2022/12/06 08:48:22;;;;;;;7.22;4.07;;;2.30;99.90;;;;;;5031049;28;20138;-49
2022/12/06 08:50:48;;;;;;;6.53;3.95;;;2.30;99.90;;;;;;5029741;28;20045;-52
2022/12/06 08:53:14;;;;;;;8.32;3.83;;;2.40;99.90;;;;;;5029385;28;20114;-50
2022/12/06 08:55:40;;;;;;;9.25;3.85;;;2.40;99.90;;;;;;5032063;28;20057;-49
2022/12/06 08:58:06;;;;;;;9.90;4.43;;;2.40;99.90;;;;;;5032666;28;20056;-52
2022/12/06 09:00:32;;;;;;;7.90;4.10;;;2.40;99.90;;;;;;5028415;28;20057;-49
2022/12/06 09:02:58;;;;;;;9.32;4.38;;;2.50;99.90;;;;;;5025503;28;20067;-50
2022/12/06 09:05:24;;;;;;;5.90;3.90;;;2.50;99.90;;;;;;5026196;28;20041;-53
2022/12/06 09:07:50;;;;;;;7.43;4.30;;;2.60;99.90;;;;;;5029727;28;20075;-51
2022/12/06 09:10:15;;;;;;;11.48;4.03;;;2.60;99.90;;;;;;5029008;28;20045;-52
2022/12/06 09:12:41;;;;;;;8.00;3.72;;;2.60;99.90;;;;;;5028365;28;20124;-51
2022/12/06 09:15:07;;;;;;;9.13;4.00;;;2.60;99.90;;;;;;5027570;28;20049;-53
2022/12/06 09:17:34;;;;;;;8.45;3.83;;;2.60;99.90;;;;;;5029940;28;20435;-52
2022/12/06 09:20:00;;;;;;;6.18;3.90;;;2.60;99.90;;;;;;5027862;28;20046;-53
2022/12/06 09:22:25;;;;;;;8.40;4.60;;;2.60;99.90;;;;;;5035021;28;20041;-48
2022/12/06 09:24:51;;;;;;;6.68;3.83;;;2.60;99.90;;;;;;5030908;28;20091;-53
2022/12/06 09:27:18;;;;;;;7.75;4.47;;;2.70;99.90;;;;;;5033391;28;20080;-51
2022/12/06 09:29:44;;;;;;;9.52;4.20;;;2.70;99.90;;;;;;5029446;28;20041;-53
2022/12/06 09:32:10;;;;;;;17.48;5.30;;;2.80;99.90;;;;;;5023480;28;20145;-51
2022/12/06 09:34:36;;;;;;;9.27;4.32;;;2.80;99.90;;;;;;5026061;28;20041;-51
2022/12/06 09:37:07;;;;;;;10.60;4.95;;;2.90;99.90;;;;;;5030724;28;20494;-52
2022/12/06 09:39:38;;;;;;;8.38;4.72;;;3.10;99.90;;;;;;5030018;28;20079;-52
2022/12/06 09:42:25;;;;;;;11.63;4.50;;;3.10;99.90;;;;;;5031862;28;20037;-51
2022/12/06 09:45:14;;;;;;;7.25;4.47;;;3.20;99.90;;;;;;5025503;28;20048;-51
2022/12/06 09:47:48;;;;;;;10.60;4.68;;;3.30;99.90;;;;;;5030864;28;20447;-53
2022/12/06 09:50:55;;;;;;;7.85;4.63;;;3.40;99.90;;;;;;5026540;28;20048;-51
2022/12/06 09:53:48;;;;;;;9.52;4.70;;;3.50;99.90;;;;;;5030168;28;20052;-52
2022/12/06 09:56:37;;;;;;;10.50;4.85;;;3.70;99.90;;;;;;5025976;28;20041;-50
2022/12/06 09:59:30;;;;;;;8.80;4.15;;;3.90;99.90;;;;;;5019243;28;20841;-48
2022/12/06 10:02:23;;;;;;;8.05;4.50;;;4.10;99.90;;;;;;5026879;28;20045;-50
2022/12/06 10:05:01;;;;;;;8.77;4.40;;;4.10;99.90;;;;;;5025098;28;20045;-52
2022/12/06 10:08:02;;;;;;;9.13;4.40;;;4.20;99.90;;;;;;5026333;28;20084;-54
2022/12/06 10:10:56;;;;;;;10.35;4.32;;;4.30;99.90;;;;;;5031989;28;20038;-53
2022/12/06 10:13:52;;;;;;;10.85;4.47;;;4.50;99.90;;;;;;5029720;28;20049;-53
2022/12/06 10:16:23;;;;;;;5.88;4.00;;;4.70;99.90;;;;;;5028644;28;20045;-49
2022/12/06 10:19:07;;;;;;;7.10;3.97;;;4.90;99.90;;;;;;5025682;28;20056;-52
2022/12/06 10:21:50;;;;;;;8.82;4.05;;;5.10;99.90;;;;;;5024948;28;20041;-51
2022/12/06 10:24:19;;;;;;;7.22;3.63;;;5.10;99.90;;;;;;5025621;28;20110;-49
2022/12/06 10:26:53;;;;;;;9.15;3.50;;;5.20;99.90;;;;;;5026586;28;20403;-52
2022/12/06 10:29:22;;;;;;;6.38;3.70;;;5.20;99.90;;;;;;5026582;28;20049;-52
2022/12/06 10:31:59;;;;;;;6.70;3.50;;;5.20;99.90;;;;;;5028720;28;20052;-49
2022/12/06 10:34:32;;;;;;;5.30;3.50;;;5.30;99.90;;;;;;5023650;28;20067;-53
2022/12/06 10:37:22;;;;;;;8.77;3.10;;;5.30;99.90;;;;;;5026936;28;20042;-52
2022/12/06 10:39:58;;;;;;;7.30;3.33;;;5.30;99.90;;;;;;5026520;28;20037;-51
2022/12/06 10:42:41;;;;;;;9.02;3.30;;;5.40;99.90;;;;;;5024758;28;20438;-52
2022/12/06 10:47:02;;;;;;;7.78;3.10;;;5.40;99.90;;;;;;5025093;28;20983;-52
2022/12/06 10:48:06;;;;;;;4.32;2.67;;;5.50;99.90;;;;;;5022907;28;20140;-54
2022/12/06 10:50:34;;;;;;;;;;;5.50;99.90;;;;;;5027344;28;20483;-50
2022/12/06 10:53:07;;;;;;;6.53;2.90;;;5.60;99.90;;;;;;5018367;28;19975;-51
2022/12/06 10:55:39;;;;;;;5.18;2.80;;;5.60;99.90;;;;;;5027326;28;20049;-51
2022/12/06 10:58:24;;;;;;;6.53;2.70;;;5.60;99.90;;;;;;5029645;28;20107;-49
2022/12/06 11:01:05;;;;;;;5.28;2.63;;;5.60;99.90;;;;;;5028304;28;20048;-49
2022/12/06 11:03:39;;;;;;;5.28;2.90;;;5.60;99.90;;;;;;5030087;28;20452;-53
2022/12/06 11:06:19;;;;;;;5.35;2.50;;;5.60;99.90;;;;;;5027084;28;20080;-53
2022/12/06 11:08:53;;;;;;;6.15;2.92;;;5.70;99.90;;;;;;5030659;28;20076;-52
2022/12/06 11:11:34;;;;;;;4.95;3.10;;;5.80;99.90;;;;;;5029861;28;20059;-51
2022/12/06 11:14:09;;;;;;;5.07;2.80;;;5.90;99.90;;;;;;5030444;28;20049;-53
2022/12/06 11:16:43;;;;;;;5.97;2.97;;;6.00;99.90;;;;;;5028488;28;20037;-51
2022/12/06 11:19:32;;;;;;;10.00;3.25;;;6.10;99.90;;;;;;5028987;28;21263;-51
2022/12/06 11:22:34;;;;;;;4.03;2.60;;;6.20;99.90;;;;;;5027758;28;20059;-50
2022/12/06 11:25:24;;;;;;;4.30;2.47;;;6.20;99.90;;;;;;4990877;28;20038;-52
2022/12/06 11:28:14;;;;;;;3.25;2.38;;;6.30;99.90;;;;;;5033906;28;20486;-53
2022/12/06 11:30:40;;;;;;;4.50;2.40;;;6.30;99.90;;;;;;5018101;28;20077;-50
2022/12/06 11:33:08;;;;;;;8.88;2.78;;;6.30;99.90;;;;;;5031159;28;20152;-52
2022/12/06 11:35:35;;;;;;;4.72;2.58;;;6.30;99.90;;;;;;5027142;28;20041;-52
2022/12/06 11:38:04;;;;;;;6.45;2.83;;;6.30;99.90;;;;;;5030205;28;21147;-50
2022/12/06 11:40:50;;;;;;;5.78;2.80;;;6.30;99.90;;;;;;5030017;28;20038;-53
2022/12/06 11:43:23;;;;;;;5.38;2.42;;;6.30;99.90;;;;;;5023653;28;22189;-57
2022/12/06 11:45:49;;;;;;;4.85;2.88;;;6.20;99.90;;;;;;5031308;28;20041;-58
2022/12/06 11:48:21;;;;;;;5.40;2.80;;;6.20;99.90;;;;;;5029211;28;20072;-56
2022/12/06 11:50:49;;;;;;;3.55;2.63;;;6.20;99.90;;;;;;5030544;28;20489;-56
2022/12/06 11:53:40;;;;;;;5.20;2.83;;;6.10;99.90;;;;;;5022050;28;20045;-56
2022/12/06 11:56:19;;;;;;;4.75;2.92;;;6.10;99.90;;;;;;5023423;28;20053;-57
2022/12/06 11:59:01;;;;;;;7.05;2.60;;;6.10;99.90;;;;;;5026579;28;21447;-58
2022/12/06 12:01:57;;;;;;;4.15;2.40;;;6.10;99.90;;;;;;5024055;28;20068;-57
2022/12/06 12:04:41;;;;;;;4.22;2.55;;;6.10;99.90;;;;;;5007653;28;21449;-57
2022/12/06 12:07:17;;;;;;;4.78;2.40;;;6.10;99.90;;;;;;5023550;28;20048;-56
2022/12/06 12:10:02;;;;;;;2.90;2.35;;;6.20;99.90;;;;;;5021476;28;24829;-57
2022/12/06 12:15:34;;;;;;;2.78;2.03;;;6.30;99.90;;;;;;5027357;28;20053;-57
2022/12/06 12:18:02;;;;;;;5.07;2.20;;;6.30;99.90;;;;;;5025371;28;20056;-55
2022/12/06 12:20:36;;;;;;;3.85;2.30;;;6.30;99.90;;;;;;5027643;28;20383;-56
2022/12/06 12:23:24;;;;;;;6.35;2.00;;;6.40;99.90;;;;;;5026839;28;20046;-57
2022/12/06 12:26:13;;;;;;;6.65;2.08;;;6.30;99.90;;;;;;5027763;28;20134;-57
2022/12/06 12:28:41;;;;;;;3.70;2.58;;;6.40;99.90;;;;;;5024761;28;22651;-56
2022/12/06 12:31:19;;;;;;;5.95;2.45;;;6.40;99.90;;;;;;5025182;28;20077;-57
2022/12/06 12:33:46;;;;;;;10.45;3.35;;;6.40;99.90;;;;;;5022282;28;20049;-58
2022/12/06 12:36:28;;;;;;;3.47;2.30;;;6.40;99.90;;;;;;5026651;28;20045;-57
2022/12/06 12:38:59;;;;;;;5.78;2.70;;;6.40;99.90;;;;;;5027329;28;20780;-57
2022/12/06 12:41:45;;;;;;;5.82;2.40;;;6.50;99.90;;;;;;5023831;28;20055;-56
2022/12/06 12:44:24;;;;;;;3.53;2.58;;;6.50;99.90;;;;;;5025113;28;20064;-56
2022/12/06 12:46:56;;;;;;;5.93;2.33;;;6.60;99.90;;;;;;5026143;28;20049;-57
2022/12/06 12:49:37;;;;;;;5.47;2.45;;;6.70;99.90;;;;;;5023589;28;20133;-56
2022/12/06 12:52:28;;;;;;;6.05;2.40;;;6.80;99.90;;;;;;5024103;28;20060;-57
2022/12/06 12:55:14;;;;;;;4.70;2.53;;;6.90;99.90;;;;;;5026626;28;20586;-58
2022/12/06 12:57:41;;;;;;;4.95;2.85;;;6.90;99.90;;;;;;5024181;28;20115;-56
2022/12/06 13:00:17;;;;;;;5.60;2.35;;;7.00;99.90;;;;;;5025064;28;21180;-57
2022/12/06 13:02:54;;;;;;;5.78;2.28;;;7.10;99.90;;;;;;5029362;28;20775;-55
2022/12/06 13:05:24;;;;;;;4.10;2.20;;;7.10;99.90;;;;;;5023814;28;20045;-56
2022/12/06 13:07:54;;;;;;;4.60;2.10;;;7.10;99.90;;;;;;5033193;28;20045;-58
2022/12/06 13:10:28;;;;;;;3.78;2.00;;;7.10;99.90;;;;;;5024758;28;20045;-59
2022/12/06 13:13:18;;;;;;;5.68;2.45;;;7.10;99.90;;;;;;5025344;28;20049;-56
2022/12/06 13:15:46;;;;;;;4.75;2.20;;;7.10;99.90;;;;;;5007683;28;20050;-61
2022/12/06 13:18:25;;;;;;;6.93;2.20;;;7.10;99.90;;;;;;5024577;28;20049;-61
2022/12/06 13:20:54;;;;;;;4.65;2.00;;;7.20;99.90;;;;;;5018157;28;20079;-61
2022/12/06 13:23:26;;;;;;;4.63;2.22;;;7.20;99.90;;;;;;5019103;28;20096;-60
2022/12/06 13:26:03;;;;;;;3.00;2.23;;;7.20;99.90;;;;;;5020278;28;20057;-61
2022/12/06 13:28:34;;;;;;;4.25;2.28;;;7.20;99.90;;;;;;5017823;28;20082;-61
2022/12/06 13:31:05;;;;;;;7.20;2.20;;;7.30;99.90;;;;;;5020872;28;20049;-61
2022/12/06 13:33:35;;;;;;;8.05;2.20;;;7.20;99.90;;;;;;5018709;28;20041;-59
2022/12/06 13:36:04;;;;;;;3.78;2.30;;;7.30;99.90;;;;;;5020428;28;21017;-61
2022/12/06 13:38:32;;;;;;;3.70;2.08;;;7.20;99.90;;;;;;5019682;28;20052;-61
2022/12/06 13:41:00;;;;;;;4.78;2.10;;;7.20;99.90;;;;;;5015723;28;20048;-61
2022/12/06 13:43:25;;;;;;;3.85;2.50;;;7.20;99.90;;;;;;5030670;28;20138;-61
2022/12/06 13:46:20;;;;;;;3.55;2.42;;;7.30;99.90;;;;;;5025320;28;20040;-61